sensor_id;sensor_type;location;lat;lon;timestamp;pressure;altitude;pressure_sealevel;temperature;humidity
14800;BME280;7491;57.750;11.970;2022-08-27T00:01:39;74885.75;;;-142.11;100.00
14800;BME280;7491;57.750;11.970;2022-08-27T00:04:06;74883.72;;;-142.11;100.00
14800;BME280;7491;57.750;11.970;2022-08-27T00:06:32;74881.69;;;-142.11;100.00
14800;BME280;7491;57.750;11.970;2022-08-27T00:09:00;74883.72;;;-142.11;100.00
14800;BME280;7491;57.750;11.970;2022-08-27T00:11:27;74887.81;;;-142.11;100.00
14800;BME280;7491;57.750;11.970;2022-08-27T00:13:54;74883.72;;;-142.11;100.00
14800;BME280;7491;57.750;11.970;2022-08-27T00:16:22;74895.94;;;-142.11;100.00
14800;BME280;7491;57.750;11.970;2022-08-27T00:18:49;74891.88;;;-142.11;100.00
14800;BME280;7491;57.750;11.970;2022-08-27T00:21:16;74900.03;;;-142.11;100.00
14800;BME280;7491;57.750;11.970;2022-08-27T00:23:43;74895.94;;;-142.11;100.00
14800;BME280;7491;57.750;11.970;2022-08-27T00:26:10;74891.88;;;-142.11;100.00
14800;BME280;7491;57.750;11.970;2022-08-27T00:28:38;74895.94;;;-142.11;100.00
14800;BME280;7491;57.750;11.970;2022-08-27T00:31:05;74887.81;;;-142.11;100.00
14800;BME280;7491;57.750;11.970;2022-08-27T00:33:34;74881.69;;;-142.11;100.00
14800;BME280;7491;57.750;11.970;2022-08-27T00:36:01;74889.84;;;-142.11;100.00
14800;BME280;7491;57.750;11.970;2022-08-27T00:38:28;74881.69;;;-142.11;100.00
14800;BME280;7491;57.750;11.970;2022-08-27T00:40:55;74877.63;;;-142.11;100.00
14800;BME280;7491;57.750;11.970;2022-08-27T00:43:25;74887.81;;;-142.11;100.00
14800;BME280;7491;57.750;11.970;2022-08-27T00:45:55;74887.81;;;-142.11;100.00
14800;BME280;7491;57.750;11.970;2022-08-27T00:48:26;74883.72;;;-142.11;100.00
14800;BME280;7491;57.750;11.970;2022-08-27T00:50:55;74883.72;;;-142.11;100.00
14800;BME280;7491;57.750;11.970;2022-08-27T00:53:25;74877.63;;;-142.11;100.00
14800;BME280;7491;57.750;11.970;2022-08-27T00:55:56;74887.81;;;-142.11;100.00
14800;BME280;7491;57.750;11.970;2022-08-27T00:58:27;74889.84;;;-142.11;100.00
14800;BME280;7491;57.750;11.970;2022-08-27T01:00:54;74883.72;;;-142.11;100.00
14800;BME280;7491;57.750;11.970;2022-08-27T01:03:21;74877.63;;;-142.11;100.00
14800;BME280;7491;57.750;11.970;2022-08-27T01:05:50;74887.81;;;-142.11;100.00
14800;BME280;7491;57.750;11.970;2022-08-27T01:08:23;74887.81;;;-142.11;100.00
14800;BME280;7491;57.750;11.970;2022-08-27T01:10:51;74881.69;;;-142.11;100.00
14800;BME280;7491;57.750;11.970;2022-08-27T01:13:22;74883.72;;;-142.11;100.00
14800;BME280;7491;57.750;11.970;2022-08-27T01:15:50;74887.81;;;-142.11;100.00
14800;BME280;7491;57.750;11.970;2022-08-27T01:18:18;74895.94;;;-142.11;100.00
14800;BME280;7491;57.750;11.970;2022-08-27T01:20:50;74908.19;;;-142.11;100.00
14800;BME280;7491;57.750;11.970;2022-08-27T01:23:27;74918.38;;;-142.11;100.00
14800;BME280;7491;57.750;11.970;2022-08-27T01:25:56;74916.31;;;-142.11;100.00
14800;BME280;7491;57.750;11.970;2022-08-27T01:28:24;74916.31;;;-142.11;100.00
14800;BME280;7491;57.750;11.970;2022-08-27T01:30:51;74922.44;;;-142.11;100.00
14800;BME280;7491;57.750;11.970;2022-08-27T01:33:20;74916.31;;;-142.11;100.00
14800;BME280;7491;57.750;11.970;2022-08-27T01:35:49;74920.41;;;-142.11;100.00
14800;BME280;7491;57.750;11.970;2022-08-27T01:38:18;74930.59;;;-142.11;100.00
14800;BME280;7491;57.750;11.970;2022-08-27T01:40:46;74924.47;;;-142.11;100.00
14800;BME280;7491;57.750;11.970;2022-08-27T01:43:14;74920.41;;;-142.11;100.00
14800;BME280;7491;57.750;11.970;2022-08-27T01:45:44;74918.38;;;-142.11;100.00
14800;BME280;7491;57.750;11.970;2022-08-27T01:48:12;74914.28;;;-142.11;100.00
14800;BME280;7491;57.750;11.970;2022-08-27T01:50:41;74914.28;;;-142.11;100.00
14800;BME280;7491;57.750;11.970;2022-08-27T01:53:14;74920.41;;;-142.11;100.00
14800;BME280;7491;57.750;11.970;2022-08-27T01:55:42;74914.28;;;-142.11;100.00
14800;BME280;7491;57.750;11.970;2022-08-27T01:58:09;74916.31;;;-142.11;100.00
14800;BME280;7491;57.750;11.970;2022-08-27T02:00:40;74918.38;;;-142.11;100.00
14800;BME280;7491;57.750;11.970;2022-08-27T02:03:08;74912.25;;;-142.11;100.00
14800;BME280;7491;57.750;11.970;2022-08-27T02:05:36;74910.22;;;-142.11;100.00
14800;BME280;7491;57.750;11.970;2022-08-27T02:08:04;74922.44;;;-142.11;100.00
14800;BME280;7491;57.750;11.970;2022-08-27T02:10:33;74928.56;;;-142.11;100.00
14800;BME280;7491;57.750;11.970;2022-08-27T02:13:01;74920.41;;;-142.11;100.00
14800;BME280;7491;57.750;11.970;2022-08-27T02:15:28;74928.56;;;-142.11;100.00
14800;BME280;7491;57.750;11.970;2022-08-27T02:17:57;74928.56;;;-142.11;100.00
14800;BME280;7491;57.750;11.970;2022-08-27T02:20:24;74918.38;;;-142.11;100.00
14800;BME280;7491;57.750;11.970;2022-08-27T02:22:50;74920.41;;;-142.11;100.00
14800;BME280;7491;57.750;11.970;2022-08-27T02:25:18;74920.41;;;-142.11;100.00
14800;BME280;7491;57.750;11.970;2022-08-27T02:27:47;74916.31;;;-142.11;100.00
14800;BME280;7491;57.750;11.970;2022-08-27T02:30:16;74922.44;;;-142.11;100.00
14800;BME280;7491;57.750;11.970;2022-08-27T02:32:43;74916.31;;;-142.11;100.00
14800;BME280;7491;57.750;11.970;2022-08-27T02:35:13;74920.41;;;-142.11;100.00
14800;BME280;7491;57.750;11.970;2022-08-27T02:37:39;74900.03;;;-142.11;100.00
14800;BME280;7491;57.750;11.970;2022-08-27T02:40:08;74900.03;;;-142.11;100.00
14800;BME280;7491;57.750;11.970;2022-08-27T02:42:35;74898.00;;;-142.11;100.00
14800;BME280;7491;57.750;11.970;2022-08-27T02:45:02;74893.91;;;-142.11;100.00
14800;BME280;7491;57.750;11.970;2022-08-27T02:47:29;74891.88;;;-142.11;100.00
14800;BME280;7491;57.750;11.970;2022-08-27T02:49:56;74887.81;;;-142.11;100.00
14800;BME280;7491;57.750;11.970;2022-08-27T02:52:25;74889.84;;;-142.11;100.00
14800;BME280;7491;57.750;11.970;2022-08-27T02:54:52;74891.88;;;-142.11;100.00
14800;BME280;7491;57.750;11.970;2022-08-27T02:57:18;74893.91;;;-142.11;100.00
14800;BME280;7491;57.750;11.970;2022-08-27T02:59:45;74900.03;;;-142.11;100.00
14800;BME280;7491;57.750;11.970;2022-08-27T03:02:11;74900.03;;;-142.11;100.00
14800;BME280;7491;57.750;11.970;2022-08-27T03:04:39;74900.03;;;-142.11;100.00
14800;BME280;7491;57.750;11.970;2022-08-27T03:07:06;74898.00;;;-142.11;100.00
14800;BME280;7491;57.750;11.970;2022-08-27T03:09:34;74906.13;;;-142.11;100.00
14800;BME280;7491;57.750;11.970;2022-08-27T03:12:02;74902.06;;;-142.11;100.00
14800;BME280;7491;57.750;11.970;2022-08-27T03:14:29;74902.06;;;-142.11;100.00
14800;BME280;7491;57.750;11.970;2022-08-27T03:16:56;74906.13;;;-142.11;100.00
14800;BME280;7491;57.750;11.970;2022-08-27T03:19:43;74908.19;;;-142.11;100.00
14800;BME280;7491;57.750;11.970;2022-08-27T03:22:10;74914.28;;;-142.11;100.00
14800;BME280;7491;57.750;11.970;2022-08-27T03:24:38;74928.56;;;-142.11;100.00
14800;BME280;7491;57.750;11.970;2022-08-27T03:27:05;74922.44;;;-142.11;100.00
14800;BME280;7491;57.750;11.970;2022-08-27T03:29:32;74932.63;;;-142.11;100.00
14800;BME280;7491;57.750;11.970;2022-08-27T03:31:59;74924.47;;;-142.11;100.00
14800;BME280;7491;57.750;11.970;2022-08-27T03:34:26;74922.44;;;-142.11;100.00
14800;BME280;7491;57.750;11.970;2022-08-27T03:36:53;74924.47;;;-142.11;100.00
14800;BME280;7491;57.750;11.970;2022-08-27T03:39:19;74916.31;;;-142.11;100.00
14800;BME280;7491;57.750;11.970;2022-08-27T03:41:47;74918.38;;;-142.11;100.00
14800;BME280;7491;57.750;11.970;2022-08-27T03:44:15;74914.28;;;-142.11;100.00
14800;BME280;7491;57.750;11.970;2022-08-27T03:46:41;74912.25;;;-142.11;100.00
14800;BME280;7491;57.750;11.970;2022-08-27T03:49:08;74914.28;;;-142.11;100.00
14800;BME280;7491;57.750;11.970;2022-08-27T03:51:35;74908.19;;;-142.11;100.00
14800;BME280;7491;57.750;11.970;2022-08-27T03:54:02;74908.19;;;-142.11;100.00
14800;BME280;7491;57.750;11.970;2022-08-27T03:56:29;74904.09;;;-142.11;100.00
14800;BME280;7491;57.750;11.970;2022-08-27T03:58:59;74906.13;;;-142.11;100.00
14800;BME280;7491;57.750;11.970;2022-08-27T04:01:26;74904.09;;;-142.11;100.00
14800;BME280;7491;57.750;11.970;2022-08-27T04:03:53;74895.94;;;-142.11;100.00
14800;BME280;7491;57.750;11.970;2022-08-27T04:06:20;74902.06;;;-142.11;100.00
14800;BME280;7491;57.750;11.970;2022-08-27T04:08:46;74895.94;;;-142.11;100.00
14800;BME280;7491;57.750;11.970;2022-08-27T04:11:13;74895.94;;;-142.11;100.00
14800;BME280;7491;57.750;11.970;2022-08-27T04:13:40;74887.81;;;-142.11;100.00
14800;BME280;7491;57.750;11.970;2022-08-27T04:16:08;74885.75;;;-142.11;100.00
14800;BME280;7491;57.750;11.970;2022-08-27T04:18:34;74885.75;;;-142.11;100.00
14800;BME280;7491;57.750;11.970;2022-08-27T04:21:06;74891.88;;;-142.11;100.00
14800;BME280;7491;57.750;11.970;2022-08-27T04:23:33;74887.81;;;-142.11;100.00
14800;BME280;7491;57.750;11.970;2022-08-27T04:26:03;74887.81;;;-142.11;100.00
14800;BME280;7491;57.750;11.970;2022-08-27T04:28:30;74883.72;;;-142.11;100.00
14800;BME280;7491;57.750;11.970;2022-08-27T04:30:57;74881.69;;;-142.11;100.00
14800;BME280;7491;57.750;11.970;2022-08-27T04:33:25;74881.69;;;-142.11;100.00
14800;BME280;7491;57.750;11.970;2022-08-27T04:35:56;74873.53;;;-142.11;100.00
14800;BME280;7491;57.750;11.970;2022-08-27T04:38:23;74867.44;;;-142.11;100.00
14800;BME280;7491;57.750;11.970;2022-08-27T04:40:50;74863.34;;;-142.11;100.00
14800;BME280;7491;57.750;11.970;2022-08-27T04:43:34;74853.16;;;-142.11;100.00
14800;BME280;7491;57.750;11.970;2022-08-27T04:46:00;74842.97;;;-142.11;100.00
14800;BME280;7491;57.750;11.970;2022-08-27T04:48:29;74838.91;;;-142.11;100.00
14800;BME280;7491;57.750;11.970;2022-08-27T04:50:56;74830.75;;;-142.11;100.00
14800;BME280;7491;57.750;11.970;2022-08-27T04:53:22;74832.78;;;-142.11;100.00
14800;BME280;7491;57.750;11.970;2022-08-27T04:55:51;74822.59;;;-142.11;100.00
14800;BME280;7491;57.750;11.970;2022-08-27T04:58:20;74824.63;;;-142.11;100.00
14800;BME280;7491;57.750;11.970;2022-08-27T05:00:49;74810.38;;;-142.11;100.00
14800;BME280;7491;57.750;11.970;2022-08-27T05:03:18;74802.22;;;-142.11;100.00
14800;BME280;7491;57.750;11.970;2022-08-27T05:05:49;74790.00;;;-142.11;100.00
14800;BME280;7491;57.750;11.970;2022-08-27T05:08:16;74796.09;;;-142.11;100.00
14800;BME280;7491;57.750;11.970;2022-08-27T05:10:44;74792.03;;;-142.11;100.00
14800;BME280;7491;57.750;11.970;2022-08-27T05:13:12;74781.84;;;-142.11;100.00
14800;BME280;7491;57.750;11.970;2022-08-27T05:15:39;74777.75;;;-142.11;100.00
14800;BME280;7491;57.750;11.970;2022-08-27T05:18:07;74787.94;;;-142.11;100.00
14800;BME280;7491;57.750;11.970;2022-08-27T05:20:41;74773.69;;;-142.11;100.00
14800;BME280;7491;57.750;11.970;2022-08-27T05:23:09;74755.34;;;-142.11;100.00
14800;BME280;7491;57.750;11.970;2022-08-27T05:25:37;74745.16;;;-142.11;100.00
14800;BME280;7491;57.750;11.970;2022-08-27T05:28:04;74732.94;;;-142.11;100.00
14800;BME280;7491;57.750;11.970;2022-08-27T05:30:34;74728.88;;;-142.11;100.00
14800;BME280;7491;57.750;11.970;2022-08-27T05:33:01;74732.94;;;-142.11;100.00
14800;BME280;7491;57.750;11.970;2022-08-27T05:35:27;74716.63;;;-142.11;100.00
14800;BME280;7491;57.750;11.970;2022-08-27T05:37:55;74704.41;;;-142.11;100.00
14800;BME280;7491;57.750;11.970;2022-08-27T05:40:25;74694.22;;;-142.11;100.00
14800;BME280;7491;57.750;11.970;2022-08-27T05:42:52;74700.34;;;-142.11;100.00
14800;BME280;7491;57.750;11.970;2022-08-27T05:45:19;74706.44;;;-142.11;100.00
14800;BME280;7491;57.750;11.970;2022-08-27T05:47:46;74692.19;;;-142.11;100.00
14800;BME280;7491;57.750;11.970;2022-08-27T05:50:13;74675.88;;;-142.11;100.00
14800;BME280;7491;57.750;11.970;2022-08-27T05:52:39;74671.81;;;-142.11;100.00
14800;BME280;7491;57.750;11.970;2022-08-27T05:55:07;74667.72;;;-142.11;100.00
14800;BME280;7491;57.750;11.970;2022-08-27T05:57:35;74655.50;;;-142.11;100.00
14800;BME280;7491;57.750;11.970;2022-08-27T06:00:03;74667.72;;;-142.11;100.00
14800;BME280;7491;57.750;11.970;2022-08-27T06:02:47;74647.34;;;-142.11;100.00
14800;BME280;7491;57.750;11.970;2022-08-27T06:05:13;74643.28;;;-142.11;100.00
14800;BME280;7491;57.750;11.970;2022-08-27T06:07:40;74641.25;;;-142.11;100.00
14800;BME280;7491;57.750;11.970;2022-08-27T06:10:08;74626.97;;;-142.11;100.00
14800;BME280;7491;57.750;11.970;2022-08-27T06:12:36;74618.84;;;-142.11;100.00
14800;BME280;7491;57.750;11.970;2022-08-27T06:15:03;74631.06;;;-142.11;100.00
14800;BME280;7491;57.750;11.970;2022-08-27T06:17:30;74643.28;;;-142.11;100.00
14800;BME280;7491;57.750;11.970;2022-08-27T06:19:57;74626.97;;;-142.11;100.00
14800;BME280;7491;57.750;11.970;2022-08-27T06:22:23;74626.97;;;-142.11;100.00
14800;BME280;7491;57.750;11.970;2022-08-27T06:24:50;74622.91;;;-142.11;100.00
14800;BME280;7491;57.750;11.970;2022-08-27T06:27:18;74618.84;;;-142.11;100.00
14800;BME280;7491;57.750;11.970;2022-08-27T06:29:46;74602.53;;;-142.11;100.00
14800;BME280;7491;57.750;11.970;2022-08-27T06:32:14;74600.50;;;-142.11;100.00
14800;BME280;7491;57.750;11.970;2022-08-27T06:34:40;74590.31;;;-142.11;100.00
14800;BME280;7491;57.750;11.970;2022-08-27T06:37:07;74602.53;;;-142.11;100.00
14800;BME280;7491;57.750;11.970;2022-08-27T06:39:35;74594.38;;;-142.11;100.00
14800;BME280;7491;57.750;11.970;2022-08-27T06:42:04;74588.25;;;-142.11;100.00
14800;BME280;7491;57.750;11.970;2022-08-27T06:44:30;74574.00;;;-142.11;100.00
14800;BME280;7491;57.750;11.970;2022-08-27T06:46:58;74567.88;;;-142.11;100.00
14800;BME280;7491;57.750;11.970;2022-08-27T06:49:25;74557.69;;;-142.11;100.00
14800;BME280;7491;57.750;11.970;2022-08-27T06:51:52;74539.38;;;-142.11;100.00
14800;BME280;7491;57.750;11.970;2022-08-27T06:54:19;74541.41;;;-142.11;100.00
14800;BME280;7491;57.750;11.970;2022-08-27T06:56:46;74531.22;;;-142.11;100.00
14800;BME280;7491;57.750;11.970;2022-08-27T06:59:16;74527.13;;;-142.11;100.00
14800;BME280;7491;57.750;11.970;2022-08-27T07:01:46;74523.06;;;-142.11;100.00
14800;BME280;7491;57.750;11.970;2022-08-27T07:04:19;74519.00;;;-142.11;100.00
14800;BME280;7491;57.750;11.970;2022-08-27T07:06:46;74516.94;;;-142.11;100.00
14800;BME280;7491;57.750;11.970;2022-08-27T07:09:13;74529.19;;;-142.11;100.00
14800;BME280;7491;57.750;11.970;2022-08-27T07:11:40;74525.09;;;-142.11;100.00
14800;BME280;7491;57.750;11.970;2022-08-27T07:14:08;74516.94;;;-142.11;100.00
14800;BME280;7491;57.750;11.970;2022-08-27T07:16:35;74521.03;;;-142.11;100.00
14800;BME280;7491;57.750;11.970;2022-08-27T07:19:03;74521.03;;;-142.11;100.00
14800;BME280;7491;57.750;11.970;2022-08-27T07:21:32;74512.88;;;-142.11;100.00
14800;BME280;7491;57.750;11.970;2022-08-27T07:24:00;74502.69;;;-142.11;100.00
14800;BME280;7491;57.750;11.970;2022-08-27T07:26:29;74506.75;;;-142.11;100.00
14800;BME280;7491;57.750;11.970;2022-08-27T07:28:56;74506.75;;;-142.11;100.00
14800;BME280;7491;57.750;11.970;2022-08-27T07:31:26;74514.91;;;-142.11;100.00
14800;BME280;7491;57.750;11.970;2022-08-27T07:33:53;74502.69;;;-142.11;100.00
14800;BME280;7491;57.750;11.970;2022-08-27T07:36:20;74496.56;;;-142.11;100.00
14800;BME280;7491;57.750;11.970;2022-08-27T07:38:49;74496.56;;;-142.11;100.00
14800;BME280;7491;57.750;11.970;2022-08-27T07:41:17;74508.81;;;-142.11;100.00
14800;BME280;7491;57.750;11.970;2022-08-27T07:43:46;74496.56;;;-142.11;100.00
14800;BME280;7491;57.750;11.970;2022-08-27T07:46:30;74490.47;;;-142.11;100.00
14800;BME280;7491;57.750;11.970;2022-08-27T07:48:57;74484.34;;;-142.11;100.00
14800;BME280;7491;57.750;11.970;2022-08-27T07:51:26;74488.44;;;-142.11;100.00
14800;BME280;7491;57.750;11.970;2022-08-27T07:53:55;74472.13;;;-142.11;100.00
14800;BME280;7491;57.750;11.970;2022-08-27T07:56:22;74474.16;;;-142.11;100.00
14800;BME280;7491;57.750;11.970;2022-08-27T07:58:49;74472.13;;;-142.11;100.00
14800;BME280;7491;57.750;11.970;2022-08-27T08:01:17;74459.91;;;-142.11;100.00
14800;BME280;7491;57.750;11.970;2022-08-27T08:03:48;74457.88;;;-142.11;100.00
14800;BME280;7491;57.750;11.970;2022-08-27T08:06:15;74457.88;;;-142.11;100.00
14800;BME280;7491;57.750;11.970;2022-08-27T08:08:42;74447.69;;;-142.11;100.00
14800;BME280;7491;57.750;11.970;2022-08-27T08:11:12;74453.78;;;-142.11;100.00
14800;BME280;7491;57.750;11.970;2022-08-27T08:13:39;74461.94;;;-142.11;100.00
14800;BME280;7491;57.750;11.970;2022-08-27T08:16:06;74470.09;;;-142.11;100.00
14800;BME280;7491;57.750;11.970;2022-08-27T08:18:34;74470.09;;;-142.11;100.00
14800;BME280;7491;57.750;11.970;2022-08-27T08:21:02;74457.88;;;-142.11;100.00
14800;BME280;7491;57.750;11.970;2022-08-27T08:23:29;74453.78;;;-142.11;100.00
14800;BME280;7491;57.750;11.970;2022-08-27T08:25:57;74447.69;;;-142.11;100.00
14800;BME280;7491;57.750;11.970;2022-08-27T08:28:26;74443.59;;;-142.11;100.00
14800;BME280;7491;57.750;11.970;2022-08-27T08:30:54;74445.63;;;-142.11;100.00
14800;BME280;7491;57.750;11.970;2022-08-27T08:33:21;74451.75;;;-142.11;100.00
14800;BME280;7491;57.750;11.970;2022-08-27T08:35:48;74449.72;;;-142.11;100.00
14800;BME280;7491;57.750;11.970;2022-08-27T08:38:16;74449.72;;;-142.11;100.00
14800;BME280;7491;57.750;11.970;2022-08-27T08:40:45;74455.81;;;-142.11;100.00
14800;BME280;7491;57.750;11.970;2022-08-27T08:43:28;74459.91;;;-142.11;100.00
14800;BME280;7491;57.750;11.970;2022-08-27T08:46:07;74461.94;;;-142.11;100.00
14800;BME280;7491;57.750;11.970;2022-08-27T08:48:37;74451.75;;;-142.11;100.00
14800;BME280;7491;57.750;11.970;2022-08-27T08:51:13;74451.75;;;-142.11;100.00
14800;BME280;7491;57.750;11.970;2022-08-27T08:53:47;74457.88;;;-142.11;100.00
14800;BME280;7491;57.750;11.970;2022-08-27T08:56:21;74451.75;;;-142.11;100.00
14800;BME280;7491;57.750;11.970;2022-08-27T08:58:54;74457.88;;;-142.11;100.00
14800;BME280;7491;57.750;11.970;2022-08-27T09:01:25;74468.06;;;-142.11;100.00
14800;BME280;7491;57.750;11.970;2022-08-27T09:03:55;74480.28;;;-142.11;100.00
14800;BME280;7491;57.750;11.970;2022-08-27T09:06:31;74463.97;;;-142.11;100.00
14800;BME280;7491;57.750;11.970;2022-08-27T09:09:04;74470.09;;;-142.11;100.00
14800;BME280;7491;57.750;11.970;2022-08-27T09:11:39;74476.19;;;-142.11;100.00
14800;BME280;7491;57.750;11.970;2022-08-27T09:14:23;74463.97;;;-142.11;100.00
14800;BME280;7491;57.750;11.970;2022-08-27T09:16:51;74451.75;;;-142.11;100.00
14800;BME280;7491;57.750;11.970;2022-08-27T09:19:17;74437.50;;;-142.11;100.00
14800;BME280;7491;57.750;11.970;2022-08-27T09:21:50;74435.44;;;-142.11;100.00
14800;BME280;7491;57.750;11.970;2022-08-27T09:24:22;74433.41;;;-142.11;100.00
14800;BME280;7491;57.750;11.970;2022-08-27T09:26:51;74441.56;;;-142.11;100.00
14800;BME280;7491;57.750;11.970;2022-08-27T09:29:19;74431.38;;;-142.11;100.00
14800;BME280;7491;57.750;11.970;2022-08-27T09:31:55;74441.56;;;-142.11;100.00
14800;BME280;7491;57.750;11.970;2022-08-27T09:34:23;74433.41;;;-142.11;100.00
14800;BME280;7491;57.750;11.970;2022-08-27T09:36:54;74431.38;;;-142.11;100.00
14800;BME280;7491;57.750;11.970;2022-08-27T09:39:44;74429.34;;;-142.11;100.00
14800;BME280;7491;57.750;11.970;2022-08-27T09:42:31;74429.34;;;-142.11;100.00
14800;BME280;7491;57.750;11.970;2022-08-27T09:45:05;74425.25;;;-142.11;100.00
14800;BME280;7491;57.750;11.970;2022-08-27T09:47:40;74417.13;;;-142.11;100.00
14800;BME280;7491;57.750;11.970;2022-08-27T09:50:08;74402.84;;;-142.11;100.00
14800;BME280;7491;57.750;11.970;2022-08-27T09:52:38;74398.78;;;-142.11;100.00
14800;BME280;7491;57.750;11.970;2022-08-27T09:55:11;74398.78;;;-142.11;100.00
14800;BME280;7491;57.750;11.970;2022-08-27T09:57:39;74394.69;;;-142.11;100.00
14800;BME280;7491;57.750;11.970;2022-08-27T10:00:14;74408.97;;;-142.11;100.00
14800;BME280;7491;57.750;11.970;2022-08-27T10:02:49;74396.75;;;-142.11;100.00
14800;BME280;7491;57.750;11.970;2022-08-27T10:05:24;74400.81;;;-142.11;100.00
14800;BME280;7491;57.750;11.970;2022-08-27T10:07:56;74392.66;;;-142.11;100.00
14800;BME280;7491;57.750;11.970;2022-08-27T10:10:35;74378.41;;;-142.11;100.00
14800;BME280;7491;57.750;11.970;2022-08-27T10:13:05;74376.38;;;-142.11;100.00
14800;BME280;7491;57.750;11.970;2022-08-27T10:15:40;74380.44;;;-142.11;100.00
14800;BME280;7491;57.750;11.970;2022-08-27T10:18:11;74378.41;;;-142.11;100.00
14800;BME280;7491;57.750;11.970;2022-08-27T10:20:49;74380.44;;;-142.11;100.00
14800;BME280;7491;57.750;11.970;2022-08-27T10:23:23;74372.28;;;-142.11;100.00
14800;BME280;7491;57.750;11.970;2022-08-27T10:26:00;74374.31;;;-142.11;100.00
14800;BME280;7491;57.750;11.970;2022-08-27T10:28:40;74368.22;;;-142.11;100.00
14800;BME280;7491;57.750;11.970;2022-08-27T10:31:20;74370.25;;;-142.11;100.00
14800;BME280;7491;57.750;11.970;2022-08-27T10:34:02;74376.38;;;-142.11;100.00
14800;BME280;7491;57.750;11.970;2022-08-27T10:36:38;74386.56;;;-142.11;100.00
14800;BME280;7491;57.750;11.970;2022-08-27T10:39:14;74378.41;;;-142.11;100.00
14800;BME280;7491;57.750;11.970;2022-08-27T10:41:48;74360.06;;;-142.11;100.00
14800;BME280;7491;57.750;11.970;2022-08-27T10:44:32;74345.81;;;-142.11;100.00
14800;BME280;7491;57.750;11.970;2022-08-27T10:47:11;74364.13;;;-142.11;100.00
14800;BME280;7491;57.750;11.970;2022-08-27T10:49:45;74347.84;;;-142.11;100.00
14800;BME280;7491;57.750;11.970;2022-08-27T10:52:20;74347.84;;;-142.11;100.00
14800;BME280;7491;57.750;11.970;2022-08-27T10:54:52;74353.94;;;-142.11;100.00
14800;BME280;7491;57.750;11.970;2022-08-27T10:57:37;74356.00;;;-142.11;100.00
14800;BME280;7491;57.750;11.970;2022-08-27T11:00:12;74347.84;;;-142.11;100.00
14800;BME280;7491;57.750;11.970;2022-08-27T11:02:44;74327.47;;;-142.11;100.00
14800;BME280;7491;57.750;11.970;2022-08-27T11:05:16;74305.06;;;-142.11;100.00
14800;BME280;7491;57.750;11.970;2022-08-27T11:07:46;74294.88;;;-142.11;100.00
14800;BME280;7491;57.750;11.970;2022-08-27T11:10:18;74290.78;;;-142.11;100.00
14800;BME280;7491;57.750;11.970;2022-08-27T11:12:52;74274.50;;;-142.11;100.00
14800;BME280;7491;57.750;11.970;2022-08-27T11:15:26;74272.47;;;-142.11;100.00
14800;BME280;7491;57.750;11.970;2022-08-27T11:17:59;74278.56;;;-142.11;100.00
14800;BME280;7491;57.750;11.970;2022-08-27T11:20:28;74268.38;;;-142.11;100.00
14800;BME280;7491;57.750;11.970;2022-08-27T11:23:01;74270.41;;;-142.11;100.00
14800;BME280;7491;57.750;11.970;2022-08-27T11:25:40;74266.34;;;-142.11;100.00
14800;BME280;7491;57.750;11.970;2022-08-27T11:28:11;74282.66;;;-142.11;100.00
14800;BME280;7491;57.750;11.970;2022-08-27T11:30:49;74282.66;;;-142.11;100.00
14800;BME280;7491;57.750;11.970;2022-08-27T11:33:23;74268.38;;;-142.11;100.00
14800;BME280;7491;57.750;11.970;2022-08-27T11:36:14;74254.13;;;-142.11;100.00
14800;BME280;7491;57.750;11.970;2022-08-27T11:38:53;74241.91;;;-142.11;100.00
14800;BME280;7491;57.750;11.970;2022-08-27T11:41:38;74239.84;;;-142.11;100.00
14800;BME280;7491;57.750;11.970;2022-08-27T11:44:11;74237.81;;;-142.11;100.00
14800;BME280;7491;57.750;11.970;2022-08-27T11:46:42;74229.69;;;-142.11;100.00
14800;BME280;7491;57.750;11.970;2022-08-27T11:49:22;74219.50;;;-142.11;100.00
14800;BME280;7491;57.750;11.970;2022-08-27T11:51:56;74227.63;;;-142.11;100.00
14800;BME280;7491;57.750;11.970;2022-08-27T11:54:26;74231.72;;;-142.11;100.00
14800;BME280;7491;57.750;11.970;2022-08-27T11:56:53;74237.81;;;-142.11;100.00
14800;BME280;7491;57.750;11.970;2022-08-27T11:59:22;74225.59;;;-142.11;100.00
14800;BME280;7491;57.750;11.970;2022-08-27T12:01:57;74219.50;;;-142.11;100.00
14800;BME280;7491;57.750;11.970;2022-08-27T12:04:34;74227.63;;;-142.11;100.00
14800;BME280;7491;57.750;11.970;2022-08-27T12:07:04;74252.09;;;-142.11;100.00
14800;BME280;7491;57.750;11.970;2022-08-27T12:09:50;74239.84;;;-142.11;100.00
14800;BME280;7491;57.750;11.970;2022-08-27T12:12:24;74250.03;;;-142.11;100.00
14800;BME280;7491;57.750;11.970;2022-08-27T12:15:01;74243.94;;;-142.11;100.00
14800;BME280;7491;57.750;11.970;2022-08-27T12:17:35;74250.03;;;-142.11;100.00
14800;BME280;7491;57.750;11.970;2022-08-27T12:20:12;74254.13;;;-142.11;100.00
14800;BME280;7491;57.750;11.970;2022-08-27T12:22:54;74237.81;;;-142.11;100.00
14800;BME280;7491;57.750;11.970;2022-08-27T12:25:39;74248.00;;;-142.11;100.00
14800;BME280;7491;57.750;11.970;2022-08-27T12:28:07;74239.84;;;-142.11;100.00
14800;BME280;7491;57.750;11.970;2022-08-27T12:30:35;74241.91;;;-142.11;100.00
14800;BME280;7491;57.750;11.970;2022-08-27T12:33:11;74254.13;;;-142.11;100.00
14800;BME280;7491;57.750;11.970;2022-08-27T12:35:46;74266.34;;;-142.11;100.00
14800;BME280;7491;57.750;11.970;2022-08-27T12:38:16;74254.13;;;-142.11;100.00
14800;BME280;7491;57.750;11.970;2022-08-27T12:40:46;74262.28;;;-142.11;100.00
14800;BME280;7491;57.750;11.970;2022-08-27T12:43:17;74274.50;;;-142.11;100.00
14800;BME280;7491;57.750;11.970;2022-08-27T12:45:47;74290.78;;;-142.11;100.00